createdAt,value
2023-04-18T00:00:33.038Z,101679.03
2023-04-18T00:03:02.323Z,101679.03
2023-04-18T00:05:30.446Z,101686.44
2023-04-18T00:07:56.747Z,101678.41
2023-04-18T00:10:23.087Z,101682.84
2023-04-18T00:12:49.407Z,101677.41
2023-04-18T00:15:15.799Z,101687.44
2023-04-18T00:17:42.164Z,101679.69
2023-04-18T00:20:09.369Z,101684.09
2023-04-18T00:22:36.039Z,101678.78
2023-04-18T00:25:02.395Z,101679.56
2023-04-18T00:27:28.707Z,101678.28
2023-04-18T00:29:54.993Z,101676.66
2023-04-18T00:32:21.345Z,101677.06
2023-04-18T00:34:47.665Z,101676.06
2023-04-18T00:37:13.973Z,101680.88
2023-04-18T00:39:40.318Z,101679.38
2023-04-18T00:42:06.650Z,101679.22
2023-04-18T00:44:33.037Z,101678.41
2023-04-18T00:46:59.365Z,101680.00
2023-04-18T00:49:26.793Z,101675.56
2023-04-18T00:51:54.313Z,101677.34
2023-04-18T00:54:21.571Z,101676.53
2023-04-18T00:56:48.472Z,101672.72
2023-04-18T00:59:14.756Z,101680.97
2023-04-18T01:01:41.080Z,101661.75
2023-04-18T01:04:08.144Z,101665.59
2023-04-18T01:06:35.413Z,101667.09
2023-04-18T01:09:01.829Z,101676.06
2023-04-18T01:11:28.266Z,101675.13
2023-04-18T01:14:08.056Z,101678.47
2023-04-18T01:16:34.602Z,101670.66
2023-04-18T01:19:01.752Z,101674.72
2023-04-18T01:21:28.492Z,101670.63
2023-04-18T01:23:57.759Z,101674.03
2023-04-18T01:26:24.176Z,101671.09
2023-04-18T01:28:50.463Z,101672.06
2023-04-18T01:31:16.768Z,101672.88
2023-04-18T01:33:43.147Z,101669.97
2023-04-18T01:36:09.439Z,101670.75
2023-04-18T01:38:35.752Z,101676.06
2023-04-18T01:41:02.118Z,101676.88
2023-04-18T01:43:28.415Z,101674.97
2023-04-18T01:45:54.750Z,101673.22
2023-04-18T01:48:21.056Z,101673.09
2023-04-18T01:50:47.365Z,101671.63
2023-04-18T01:53:13.677Z,101671.91
2023-04-18T01:55:39.992Z,101671.69
2023-04-18T01:58:06.301Z,101663.22
2023-04-18T02:00:32.647Z,101664.72
2023-04-18T02:02:59.285Z,101669.69
2023-04-18T02:05:25.808Z,101663.03
2023-04-18T02:07:52.109Z,101666.81
2023-04-18T02:10:19.131Z,101658.13
2023-04-18T02:12:45.499Z,101662.56
2023-04-18T02:15:11.945Z,101660.94
2023-04-18T02:17:38.306Z,101670.09
2023-04-18T02:20:05.035Z,101670.19
2023-04-18T02:22:31.778Z,101668.59
2023-04-18T02:24:58.070Z,101672.31
2023-04-18T02:27:24.389Z,101670.84
2023-04-18T02:29:50.692Z,101672.16
2023-04-18T02:32:16.992Z,101683.31
2023-04-18T02:34:43.284Z,101665.72
2023-04-18T02:37:09.594Z,101677.06
2023-04-18T02:39:35.891Z,101672.25
2023-04-18T02:42:02.190Z,101673.00
2023-04-18T02:44:28.484Z,101673.19
2023-04-18T02:46:54.773Z,101680.47
2023-04-18T02:49:21.103Z,101687.06
2023-04-18T02:51:47.476Z,101681.66
2023-04-18T02:54:13.909Z,101679.88
2023-04-18T02:56:40.435Z,101683.31
2023-04-18T02:59:07.191Z,101673.94
2023-04-18T03:01:34.029Z,101670.50
2023-04-18T03:04:00.525Z,101670.31
2023-04-18T03:06:26.844Z,101678.75
2023-04-18T03:08:54.608Z,101678.47
2023-04-18T03:11:20.942Z,101678.13
2023-04-18T03:13:47.228Z,101690.31
2023-04-18T03:16:13.668Z,101679.81
2023-04-18T03:18:39.990Z,101681.66
2023-04-18T03:21:06.304Z,101682.50
2023-04-18T03:23:32.604Z,101688.13
2023-04-18T03:25:59.024Z,101689.75
2023-04-18T03:28:25.349Z,101692.44
2023-04-18T03:30:51.761Z,101683.06
2023-04-18T03:33:18.147Z,101689.53
2023-04-18T03:35:44.506Z,101688.13
2023-04-18T03:38:10.805Z,101691.28
2023-04-18T03:40:37.136Z,101700.66
2023-04-18T03:43:03.436Z,101700.19
2023-04-18T03:45:30.124Z,101692.22
2023-04-18T03:47:56.459Z,101696.19
2023-04-18T03:50:22.870Z,101695.03
2023-04-18T03:52:49.202Z,101692.22
2023-04-18T03:55:15.805Z,101701.59
2023-04-18T03:57:42.118Z,101706.72
2023-04-18T04:00:10.572Z,101708.75
2023-04-18T04:02:37.032Z,101707.66
2023-04-18T04:05:03.756Z,101711.44
2023-04-18T04:07:30.833Z,101704.03
2023-04-18T04:09:57.772Z,101701.59
2023-04-18T04:12:25.395Z,101691.41
2023-04-18T04:14:51.710Z,101699.03
2023-04-18T04:17:18.036Z,101701.59
2023-04-18T04:19:44.341Z,101700.88
2023-04-18T04:22:10.870Z,101699.38
2023-04-18T04:24:37.171Z,101695.25
2023-04-18T04:27:03.847Z,101698.53
2023-04-18T04:29:30.157Z,101699.72
2023-04-18T04:31:56.850Z,101702.06
2023-04-18T04:34:23.223Z,101693.59
2023-04-18T04:36:49.642Z,101704.00
2023-04-18T04:39:15.990Z,101716.44
2023-04-18T04:41:42.399Z,101717.16
2023-04-18T04:44:08.867Z,101717.00
2023-04-18T04:46:35.785Z,101722.75
2023-04-18T04:49:02.088Z,101718.66
2023-04-18T04:51:28.573Z,101726.25
2023-04-18T04:53:54.882Z,101723.66
2023-04-18T04:56:21.281Z,101729.34
2023-04-18T04:58:47.576Z,101736.19
2023-04-18T05:01:13.986Z,101733.91
2023-04-18T05:03:40.388Z,101742.75
2023-04-18T05:06:07.035Z,101739.75
2023-04-18T05:08:33.359Z,101739.31
2023-04-18T05:11:01.237Z,101742.41
2023-04-18T05:13:27.562Z,101753.06
2023-04-18T05:15:54.013Z,101739.53
2023-04-18T05:18:20.330Z,101753.78
2023-04-18T05:20:46.627Z,101746.44
2023-04-18T05:23:12.957Z,101751.84
2023-04-18T05:25:39.364Z,101748.66
2023-04-18T05:28:05.701Z,101744.91
2023-04-18T05:30:32.005Z,101755.22
2023-04-18T05:32:58.313Z,101752.16
2023-04-18T05:35:24.720Z,101760.88
2023-04-18T05:37:51.013Z,101759.47
2023-04-18T05:40:17.316Z,101757.59
2023-04-18T05:42:43.623Z,101757.47
2023-04-18T05:45:10.290Z,101767.44
2023-04-18T05:47:36.719Z,101763.22
2023-04-18T05:50:03.193Z,101765.47
2023-04-18T05:52:29.511Z,101762.84
2023-04-18T05:54:55.834Z,101767.88
2023-04-18T05:57:22.174Z,101753.75
2023-04-18T05:59:48.580Z,101758.06
2023-04-18T06:02:15.013Z,101758.41
2023-04-18T06:04:42.693Z,101763.31
2023-04-18T06:07:09.929Z,101763.19
2023-04-18T06:09:36.444Z,101759.25
2023-04-18T06:12:03.065Z,101762.50
2023-04-18T06:14:29.426Z,101770.59
2023-04-18T06:16:55.948Z,101767.22
2023-04-18T06:19:22.270Z,101768.16
2023-04-18T06:21:49.097Z,101769.66
2023-04-18T06:24:15.748Z,101773.44
2023-04-18T06:26:42.326Z,101775.00
2023-04-18T06:29:08.634Z,101784.81
2023-04-18T06:31:34.976Z,101782.00
2023-04-18T06:34:01.269Z,101776.81
2023-04-18T06:36:27.706Z,101790.06
2023-04-18T06:38:54.013Z,101786.88
2023-04-18T06:41:20.304Z,101794.03
2023-04-18T06:43:59.830Z,101795.00
2023-04-18T06:46:30.097Z,101799.47
2023-04-18T06:48:56.712Z,101795.94
2023-04-18T06:51:23.062Z,101784.72
2023-04-18T06:53:49.357Z,101795.16
2023-04-18T06:56:15.677Z,101801.56
2023-04-18T06:58:42.117Z,101797.63
2023-04-18T07:01:08.459Z,101795.16
2023-04-18T07:03:34.894Z,101807.50
2023-04-18T07:06:01.275Z,101807.94
2023-04-18T07:08:27.571Z,101804.66
2023-04-18T07:10:53.924Z,101808.41
2023-04-18T07:13:20.233Z,101811.81
2023-04-18T07:15:46.648Z,101809.34
2023-04-18T07:18:18.039Z,101819.72
2023-04-18T07:20:49.838Z,101809.34
2023-04-18T07:23:16.156Z,101813.56
2023-04-18T07:25:42.452Z,101809.19
2023-04-18T07:28:08.768Z,101819.44
2023-04-18T07:30:35.078Z,101818.13
2023-04-18T07:33:01.402Z,101801.81
2023-04-18T07:35:27.778Z,101814.59
2023-04-18T07:37:54.247Z,101816.31
2023-04-18T07:40:21.074Z,101808.16
2023-04-18T07:42:47.389Z,101813.44
2023-04-18T07:45:13.703Z,101801.13
2023-04-18T07:47:40.134Z,101809.53
2023-04-18T07:50:07.174Z,101808.50
2023-04-18T07:52:34.226Z,101812.66
2023-04-18T07:55:00.537Z,101815.69
2023-04-18T07:57:26.867Z,101817.13
2023-04-18T07:59:53.233Z,101814.28
2023-04-18T08:02:20.590Z,101817.41
2023-04-18T08:04:47.064Z,101819.59
2023-04-18T08:07:13.636Z,101821.06
2023-04-18T08:09:39.932Z,101826.63
2023-04-18T08:12:06.394Z,101822.47
2023-04-18T08:14:32.714Z,101823.78
2023-04-18T08:16:59.070Z,101822.53
2023-04-18T08:19:25.669Z,101821.19
2023-04-18T08:21:52.068Z,101831.22
2023-04-18T08:24:18.627Z,101822.84
2023-04-18T08:26:44.982Z,101819.94
2023-04-18T08:29:11.551Z,101826.81
2023-04-18T08:31:38.951Z,101829.88
2023-04-18T08:34:05.376Z,101829.56
2023-04-18T08:36:31.708Z,101831.13
2023-04-18T08:38:57.997Z,101841.13
2023-04-18T08:41:25.125Z,101833.25
2023-04-18T08:43:51.475Z,101837.97
2023-04-18T08:46:17.831Z,101837.41
2023-04-18T08:48:44.265Z,101842.22
2023-04-18T08:51:10.552Z,101848.22
2023-04-18T08:53:37.302Z,101841.09
2023-04-18T08:56:03.627Z,101839.97
2023-04-18T08:58:29.923Z,101844.09
2023-04-18T09:00:56.356Z,101843.63
2023-04-18T09:03:40.957Z,101845.78
2023-04-18T09:06:17.035Z,101848.59
2023-04-18T09:08:43.572Z,101835.34
2023-04-18T09:11:27.402Z,101844.56
2023-04-18T09:13:54.173Z,101844.69
2023-04-18T09:16:20.557Z,101848.59
2023-04-18T09:19:07.818Z,101843.69
2023-04-18T09:21:34.142Z,101847.13
2023-04-18T09:24:17.511Z,101852.72
2023-04-18T09:26:43.815Z,101845.81
2023-04-18T09:29:10.121Z,101842.47
2023-04-18T09:31:54.535Z,101845.75
2023-04-18T09:34:21.516Z,101838.28
2023-04-18T09:37:05.787Z,101834.09
2023-04-18T09:39:32.200Z,101830.75
2023-04-18T09:41:59.475Z,101840.09
2023-04-18T09:44:25.885Z,101840.47
2023-04-18T09:46:52.334Z,101836.13
2023-04-18T09:49:18.754Z,101837.53
2023-04-18T09:51:45.630Z,101838.28
2023-04-18T09:54:16.346Z,101839.09
2023-04-18T09:56:45.502Z,101835.50
2023-04-18T09:59:15.849Z,101838.81
2023-04-18T10:01:44.149Z,101830.56
2023-04-18T10:04:12.368Z,101837.25
2023-04-18T10:06:39.498Z,101827.69
2023-04-18T10:09:09.033Z,101834.19
2023-04-18T10:11:36.163Z,101831.09
2023-04-18T10:14:10.862Z,101832.75
2023-04-18T10:16:38.084Z,101835.78
2023-04-18T10:19:25.643Z,101830.41
2023-04-18T10:21:56.477Z,101827.13
2023-04-18T10:24:52.170Z,101826.56
2023-04-18T10:27:55.852Z,101820.28
2023-04-18T10:30:42.094Z,101821.72
2023-04-18T10:33:29.922Z,101815.19
2023-04-18T10:36:17.100Z,101821.72
2023-04-18T10:38:47.651Z,101813.53
2023-04-18T10:41:28.876Z,101814.38
2023-04-18T10:44:08.395Z,101809.00
2023-04-18T10:46:38.233Z,101811.63
2023-04-18T10:49:14.400Z,101815.94
2023-04-18T10:51:41.205Z,101804.84
2023-04-18T10:54:10.400Z,101816.28
2023-04-18T10:56:37.085Z,101815.00
2023-04-18T10:59:03.728Z,101822.06
2023-04-18T11:01:32.688Z,101814.38
2023-04-18T11:04:00.303Z,101813.78
2023-04-18T11:06:26.749Z,101808.88
2023-04-18T11:09:12.755Z,101808.28
2023-04-18T11:11:39.543Z,101815.50
2023-04-18T11:14:05.877Z,101811.97
2023-04-18T11:16:33.746Z,101813.72
2023-04-18T11:19:00.295Z,101809.81
2023-04-18T11:21:29.217Z,101805.56
2023-04-18T11:23:57.680Z,101790.38
2023-04-18T11:26:27.839Z,101802.38
2023-04-18T11:28:57.768Z,101792.00
2023-04-18T11:31:24.961Z,101800.91
2023-04-18T11:33:52.314Z,101787.94
2023-04-18T11:36:18.703Z,101795.75
2023-04-18T11:38:45.105Z,101799.88
2023-04-18T11:41:15.485Z,101798.34
2023-04-18T11:43:43.713Z,101790.28
2023-04-18T11:46:10.833Z,101787.97
2023-04-18T11:48:38.763Z,101788.25
2023-04-18T11:51:06.368Z,101795.50
2023-04-18T11:53:34.349Z,101802.50
2023-04-18T11:56:00.901Z,101792.00
2023-04-18T11:58:34.834Z,101796.41
2023-04-18T12:01:22.294Z,101807.69
2023-04-18T12:04:11.576Z,101798.75
2023-04-18T12:06:50.875Z,101804.72
2023-04-18T12:09:18.468Z,101805.09
2023-04-18T12:11:55.971Z,101801.44
2023-04-18T12:14:22.581Z,101802.63
2023-04-18T12:16:50.023Z,101804.28
2023-04-18T12:19:16.636Z,101793.94
2023-04-18T12:22:02.885Z,101805.66
2023-04-18T12:24:29.296Z,101810.44
2023-04-18T12:26:55.858Z,101803.91
2023-04-18T12:29:22.238Z,101811.69
2023-04-18T12:31:48.617Z,101800.34
2023-04-18T12:34:15.611Z,101804.50
2023-04-18T12:36:42.741Z,101807.13
2023-04-18T12:39:09.124Z,101794.66
2023-04-18T12:41:35.546Z,101784.59
2023-04-18T12:44:02.112Z,101803.75
2023-04-18T12:46:28.530Z,101795.44
2023-04-18T12:48:54.927Z,101793.88
2023-04-18T12:51:21.208Z,101791.78
2023-04-18T12:53:47.534Z,101791.78
2023-04-18T12:56:13.905Z,101794.22
2023-04-18T12:58:40.231Z,101801.59
2023-04-18T13:01:06.574Z,101795.03
2023-04-18T13:03:33.733Z,101789.31
2023-04-18T13:06:00.267Z,101797.22
2023-04-18T13:08:26.669Z,101795.63
2023-04-18T13:10:53.059Z,101796.94
2023-04-18T13:13:19.359Z,101797.50
2023-04-18T13:15:45.791Z,101796.09
2023-04-18T13:18:12.132Z,101789.38
2023-04-18T13:20:38.432Z,101795.41
2023-04-18T13:23:04.963Z,101780.69
2023-04-18T13:25:31.328Z,101787.19
2023-04-18T13:27:57.645Z,101793.38
2023-04-18T13:30:24.079Z,101793.38
2023-04-18T13:32:50.501Z,101794.41
2023-04-18T13:35:16.951Z,101794.34
2023-04-18T13:37:43.265Z,101793.16
2023-04-18T13:40:09.945Z,101798.84
2023-04-18T13:42:37.240Z,101793.41
2023-04-18T13:45:04.492Z,101800.22
2023-04-18T13:47:31.011Z,101790.94
2023-04-18T13:49:57.450Z,101787.38
2023-04-18T13:52:24.117Z,101799.41
2023-04-18T13:54:50.475Z,101792.50
2023-04-18T13:57:16.845Z,101785.19
2023-04-18T13:59:43.152Z,101793.56
2023-04-18T14:02:10.091Z,101793.28
2023-04-18T14:04:36.854Z,101793.75
2023-04-18T14:07:04.089Z,101794.66
2023-04-18T14:09:30.396Z,101795.28
2023-04-18T14:11:56.691Z,101792.56
2023-04-18T14:14:22.998Z,101790.69
2023-04-18T14:16:49.338Z,101790.41
2023-04-18T14:19:15.905Z,101792.28
2023-04-18T14:21:42.308Z,101789.78
2023-04-18T14:24:08.965Z,101785.78
2023-04-18T14:26:35.296Z,101771.94
2023-04-18T14:29:01.583Z,101775.47
2023-04-18T14:31:27.927Z,101773.00
2023-04-18T14:33:54.232Z,101773.25
2023-04-18T14:36:20.549Z,101770.56
2023-04-18T14:38:47.856Z,101766.69
2023-04-18T14:41:14.227Z,101755.16
2023-04-18T14:43:40.563Z,101770.47
2023-04-18T14:46:14.080Z,101762.63
2023-04-18T14:48:40.595Z,101756.78
2023-04-18T14:51:07.296Z,101761.88
2023-04-18T14:53:34.034Z,101753.16
2023-04-18T14:56:00.330Z,101760.00
2023-04-18T14:58:26.688Z,101756.41
2023-04-18T15:00:53.007Z,101743.88
2023-04-18T15:03:19.376Z,101756.94
2023-04-18T15:05:45.833Z,101758.56
2023-04-18T15:08:15.161Z,101752.75
2023-04-18T15:10:42.138Z,101740.47
2023-04-18T15:13:09.438Z,101752.56
2023-04-18T15:15:35.772Z,101751.41
2023-04-18T15:18:02.132Z,101749.78
2023-04-18T15:20:28.721Z,101740.50
2023-04-18T15:22:55.864Z,101738.72
2023-04-18T15:25:22.219Z,101736.00
2023-04-18T15:27:48.556Z,101731.03
2023-04-18T15:30:14.903Z,101729.69
2023-04-18T15:32:41.279Z,101732.88
2023-04-18T15:35:11.471Z,101742.78
2023-04-18T15:37:37.794Z,101739.47
2023-04-18T15:40:04.696Z,101735.53
2023-04-18T15:42:31.214Z,101730.16
2023-04-18T15:44:57.587Z,101746.31
2023-04-18T15:47:23.966Z,101742.47
2023-04-18T15:49:50.400Z,101746.75
2023-04-18T15:52:16.763Z,101742.78
2023-04-18T15:54:43.236Z,101739.22
2023-04-18T15:57:10.391Z,101739.69
2023-04-18T15:59:37.385Z,101743.78
2023-04-18T16:02:04.012Z,101743.22
2023-04-18T16:04:30.533Z,101746.63
2023-04-18T16:06:56.908Z,101737.19
2023-04-18T16:09:23.384Z,101746.88
2023-04-18T16:11:49.726Z,101737.22
2023-04-18T16:14:16.320Z,101741.66
2023-04-18T16:16:42.800Z,101740.00
2023-04-18T16:19:09.197Z,101740.06
2023-04-18T16:21:35.566Z,101743.31
2023-04-18T16:24:01.896Z,101738.66
2023-04-18T16:26:28.247Z,101749.59
2023-04-18T16:28:54.585Z,101750.66
2023-04-18T16:31:20.921Z,101746.88
2023-04-18T16:33:47.469Z,101746.31
2023-04-18T16:36:13.821Z,101742.97
2023-04-18T16:38:40.162Z,101748.44
2023-04-18T16:41:06.463Z,101755.03
2023-04-18T16:43:32.894Z,101754.75
2023-04-18T16:45:59.198Z,101745.50
2023-04-18T16:48:25.770Z,101758.56
2023-04-18T16:50:52.076Z,101758.56
2023-04-18T16:53:18.447Z,101752.63
2023-04-18T16:55:44.740Z,101751.47
2023-04-18T16:58:11.172Z,101749.34
2023-04-18T17:00:38.479Z,101752.06
2023-04-18T17:03:05.315Z,101758.56
2023-04-18T17:05:31.639Z,101750.97
2023-04-18T17:07:58.005Z,101761.56
2023-04-18T17:10:24.505Z,101760.78
2023-04-18T17:12:50.869Z,101760.22
2023-04-18T17:15:18.204Z,101762.94
2023-04-18T17:17:44.749Z,101756.41
2023-04-18T17:20:11.420Z,101753.69
2023-04-18T17:22:37.987Z,101761.56
2023-04-18T17:25:05.138Z,101769.19
2023-04-18T17:27:31.518Z,101764.56
2023-04-18T17:29:57.861Z,101765.09
2023-04-18T17:32:24.385Z,101766.16
2023-04-18T17:34:50.713Z,101770.00
2023-04-18T17:37:17.026Z,101770.53
2023-04-18T17:39:43.790Z,101768.66
2023-04-18T17:42:10.097Z,101765.56
2023-04-18T17:44:36.559Z,101765.38
2023-04-18T17:47:02.873Z,101764.81
2023-04-18T17:49:29.189Z,101763.44
2023-04-18T17:51:55.666Z,101759.88
2023-04-18T17:54:21.973Z,101758.53
2023-04-18T17:56:48.410Z,101757.94
2023-04-18T17:59:14.908Z,101755.69
2023-04-18T18:01:41.521Z,101754.06
2023-04-18T18:04:07.949Z,101750.00
2023-04-18T18:06:34.363Z,101757.06
2023-04-18T18:09:00.694Z,101756.53
2023-04-18T18:11:27.060Z,101760.06
2023-04-18T18:13:53.614Z,101760.50
2023-04-18T18:16:20.484Z,101764.75
2023-04-18T18:18:46.813Z,101770.72
2023-04-18T18:21:13.129Z,101776.13
2023-04-18T18:23:39.458Z,101784.16
2023-04-18T18:26:05.788Z,101782.53
2023-04-18T18:28:32.165Z,101791.22
2023-04-18T18:30:58.710Z,101791.13
2023-04-18T18:33:25.075Z,101783.69
2023-04-18T18:35:51.397Z,101792.38
2023-04-18T18:38:17.705Z,101783.94
2023-04-18T18:40:44.064Z,101787.94
2023-04-18T18:43:10.381Z,101789.50
2023-04-18T18:45:38.085Z,101794.72
2023-04-18T18:48:05.322Z,101797.69
2023-04-18T18:50:31.765Z,101794.28
2023-04-18T18:52:58.065Z,101799.38
2023-04-18T18:55:24.470Z,101799.16
2023-04-18T18:57:51.041Z,101805.97
2023-04-18T19:00:17.512Z,101808.81
2023-04-18T19:02:44.111Z,101813.47
2023-04-18T19:05:10.561Z,101806.03
2023-04-18T19:07:36.875Z,101808.38
2023-04-18T19:10:03.443Z,101813.59
2023-04-18T19:12:29.760Z,101811.88
2023-04-18T19:14:56.078Z,101812.09
2023-04-18T19:17:22.540Z,101812.44
2023-04-18T19:19:48.894Z,101814.16
2023-04-18T19:22:15.203Z,101817.31
2023-04-18T19:24:41.506Z,101816.00
2023-04-18T19:27:07.891Z,101815.97
2023-04-18T19:29:35.938Z,101823.03
2023-04-18T19:32:02.265Z,101813.63
2023-04-18T19:34:28.624Z,101820.22
2023-04-18T19:36:55.022Z,101821.13
2023-04-18T19:39:21.352Z,101819.38
2023-04-18T19:41:47.684Z,101816.22
2023-04-18T19:44:13.990Z,101823.94
2023-04-18T19:46:40.351Z,101824.47
2023-04-18T19:49:06.863Z,101824.47
2023-04-18T19:51:33.194Z,101823.31
2023-04-18T19:53:59.546Z,101812.41
2023-04-18T19:56:25.861Z,101819.03
2023-04-18T19:58:52.180Z,101823.31
2023-04-18T20:01:19.622Z,101816.31
2023-04-18T20:03:46.372Z,101823.28
2023-04-18T20:06:13.275Z,101812.25
2023-04-18T20:08:41.054Z,101816.84
2023-04-18T20:11:11.732Z,101815.91
2023-04-18T20:13:38.229Z,101822.44
2023-04-18T20:16:05.315Z,101821.03
2023-04-18T20:18:31.686Z,101822.31
2023-04-18T20:20:58.349Z,101822.88
2023-04-18T20:23:24.727Z,101819.34
2023-04-18T20:25:51.082Z,101817.44
2023-04-18T20:28:17.388Z,101819.19
2023-04-18T20:30:43.740Z,101822.78
2023-04-18T20:33:10.084Z,101821.41
2023-04-18T20:35:36.411Z,101825.19
2023-04-18T20:38:02.705Z,101823.66
2023-04-18T20:40:29.056Z,101818.91
2023-04-18T20:42:55.601Z,101825.13
2023-04-18T20:45:22.077Z,101818.03
2023-04-18T20:47:48.517Z,101818.03
2023-04-18T20:50:15.052Z,101820.13
2023-04-18T20:52:41.514Z,101814.25
2023-04-18T20:55:08.263Z,101820.88
2023-04-18T20:57:35.657Z,101820.41
2023-04-18T21:00:01.980Z,101817.38
2023-04-18T21:02:28.438Z,101817.00
2023-04-18T21:04:54.843Z,101819.06
2023-04-18T21:07:21.153Z,101828.06
2023-04-18T21:09:47.477Z,101826.22
2023-04-18T21:12:13.845Z,101831.09
2023-04-18T21:14:40.160Z,101837.22
2023-04-18T21:17:06.623Z,101838.72
2023-04-18T21:19:32.945Z,101839.75
2023-04-18T21:21:59.253Z,101834.75
2023-04-18T21:24:25.568Z,101839.78
2023-04-18T21:26:51.886Z,101834.19
2023-04-18T21:29:18.190Z,101829.56
2023-04-18T21:31:44.617Z,101833.75
2023-04-18T21:34:10.954Z,101830.41
2023-04-18T21:36:37.276Z,101833.31
2023-04-18T21:39:03.668Z,101823.81
2023-04-18T21:41:29.965Z,101832.94
2023-04-18T21:43:56.282Z,101825.94
2023-04-18T21:46:22.784Z,101828.50
2023-04-18T21:48:49.156Z,101829.69
2023-04-18T21:51:16.715Z,101832.19
2023-04-18T21:53:43.383Z,101837.84
2023-04-18T21:56:09.894Z,101830.41
2023-04-18T21:58:36.388Z,101833.47
2023-04-18T22:01:03.112Z,101835.56
2023-04-18T22:03:29.759Z,101832.03
2023-04-18T22:05:56.257Z,101827.88
2023-04-18T22:08:23.340Z,101838.72
2023-04-18T22:10:49.635Z,101831.44
2023-04-18T22:13:16.449Z,101828.97
2023-04-18T22:15:42.757Z,101832.16
2023-04-18T22:18:09.243Z,101828.28
2023-04-18T22:20:35.611Z,101829.19
2023-04-18T22:23:02.358Z,101834.78
2023-04-18T22:25:29.018Z,101830.19
2023-04-18T22:27:55.329Z,101824.53
2023-04-18T22:30:21.903Z,101828.84
2023-04-18T22:32:48.242Z,101827.69
2023-04-18T22:35:14.596Z,101829.09
2023-04-18T22:37:40.904Z,101830.41
2023-04-18T22:40:07.858Z,101826.81
2023-04-18T22:42:35.194Z,101833.06
2023-04-18T22:45:03.241Z,101825.28
2023-04-18T22:47:29.574Z,101826.13
2023-04-18T22:49:55.907Z,101834.28
2023-04-18T22:52:22.244Z,101831.56
2023-04-18T22:54:48.551Z,101835.53
2023-04-18T22:57:14.873Z,101838.72
2023-04-18T22:59:41.197Z,101837.22
2023-04-18T23:02:07.648Z,101839.22
2023-04-18T23:04:34.176Z,101847.31
2023-04-18T23:07:00.576Z,101837.50
2023-04-18T23:09:27.019Z,101841.88
2023-04-18T23:11:53.557Z,101845.06
2023-04-18T23:14:19.867Z,101849.31
2023-04-18T23:16:46.145Z,101850.38
2023-04-18T23:19:12.448Z,101841.97
2023-04-18T23:21:38.745Z,101846.66
2023-04-18T23:24:05.246Z,101845.28
2023-04-18T23:26:31.560Z,101842.41
2023-04-18T23:28:57.913Z,101846.91
2023-04-18T23:31:24.295Z,101842.50
2023-04-18T23:33:50.671Z,101845.56
2023-04-18T23:36:17.188Z,101842.72
2023-04-18T23:38:43.846Z,101844.94
2023-04-18T23:41:10.156Z,101845.94
2023-04-18T23:43:36.451Z,101843.69
2023-04-18T23:46:02.769Z,101841.78
2023-04-18T23:48:29.070Z,101837.69
2023-04-18T23:50:55.349Z,101837.38
2023-04-18T23:53:22.681Z,101834.88
2023-04-18T23:55:50.651Z,101837.09
2023-04-18T23:58:17.419Z,101833.00
